Time;durP1;ratioP1;P1;durP2;ratioP2;P2;SDS_P1;SDS_P2;PMS_P1;PMS_P2;Temp;Humidity;BMP_temperature;BMP_pressure;BME280_temperature;BME280_humidity;BME280_pressure;Samples;Min_cycle;Max_cycle;Signal;HPM_P1;HPM_P2
2024/01/29 00:00:36;;;;;;;;;;;;;;;18.38;59.67;102992.25;7392305;19;1247;-32
2024/01/29 00:03:04;;;;;;;;;;;;;;;18.36;59.71;102953.97;7391020;19;1184;-32
2024/01/29 00:05:32;;;;;;;;;;;;;;;18.33;59.99;102935.38;7390065;19;1873;-32
2024/01/29 00:08:01;;;;;;;;;;;;;;;18.34;59.76;102945.13;7391185;19;1246;-32
2024/01/29 00:10:29;;;;;;;;;;;;;;;18.44;59.44;102946.41;7391397;19;1153;-32
2024/01/29 00:12:58;;;;;;;;;;;;;;;18.45;59.40;102945.47;7391325;19;1565;-32
2024/01/29 00:15:29;;;;;;;;;;;;;;;18.46;59.36;102947.19;7392286;19;1095;-32
2024/01/29 00:17:57;;;;;;;;;;;;;;;18.46;59.41;102956.13;7391939;19;992;-32
2024/01/29 00:20:25;;;;;;;;;;;;;;;18.46;59.36;102953.44;7390865;19;1513;-33
2024/01/29 00:22:54;;;;;;;;;;;;;;;18.46;59.19;102955.22;7391581;19;1269;-32
2024/01/29 00:25:22;;;;;;;;;;;;;;;18.53;59.22;102969.19;7390511;19;1901;-32
2024/01/29 00:27:50;;;;;;;;;;;;;;;18.49;59.21;102955.09;7376961;19;1624;-33
2024/01/29 00:30:19;;;;;;;;;;;;;;;18.52;59.15;102975.47;7390875;19;1628;-32
2024/01/29 00:32:50;;;;;;;;;;;;;;;18.48;59.35;102962.25;7390961;19;1183;-32
2024/01/29 00:35:19;;;;;;;;;;;;;;;18.49;59.16;102961.28;7390886;19;1425;-32
2024/01/29 00:37:47;;;;;;;;;;;;;;;18.48;59.23;102972.09;7391272;19;1570;-32
2024/01/29 00:40:16;;;;;;;;;;;;;;;18.46;59.35;102982.91;7392106;19;1569;-32
2024/01/29 00:42:44;;;;;;;;;;;;;;;18.44;59.47;102973.19;7391513;19;1103;-33
2024/01/29 00:45:16;;;;;;;;;;;;;;;18.43;59.38;102972.31;7389934;19;1865;-32
2024/01/29 00:47:44;;;;;;;;;;;;;;;18.51;59.33;102965.72;7391178;19;1542;-32
2024/01/29 00:50:15;;;;;;;;;;;;;;;18.47;59.33;102963.19;7390327;19;1913;-32
2024/01/29 00:52:43;;;;;;;;;;;;;;;18.46;59.48;102972.19;7390492;19;1485;-32
2024/01/29 00:55:11;;;;;;;;;;;;;;;18.48;59.35;102974.75;7390321;19;1935;-32
2024/01/29 00:57:40;;;;;;;;;;;;;;;18.49;59.51;102973.84;7390153;19;1840;-32
2024/01/29 01:00:09;;;;;;;;;;;;;;;18.51;59.30;102957.69;7389776;19;1443;-33
2024/01/29 01:02:38;;;;;;;;;;;;;;;18.46;59.36;102964.16;7390270;19;1573;-33
2024/01/29 01:05:07;;;;;;;;;;;;;;;18.51;59.22;102990.69;7388189;19;1834;-33
2024/01/29 01:07:41;;;;;;;;;;;;;;;18.49;59.27;102961.28;7389763;19;1540;-33
2024/01/29 01:10:10;;;;;;;;;;;;;;;18.52;59.12;102976.34;7387652;19;1521;-32
2024/01/29 01:12:38;;;;;;;;;;;;;;;18.51;59.16;102974.63;7391008;19;1099;-32
2024/01/29 01:15:08;;;;;;;;;;;;;;;18.49;59.29;102968.47;7385205;19;1892;-32
2024/01/29 01:17:36;;;;;;;;;;;;;;;18.45;59.21;102969.56;7389475;19;1506;-32
2024/01/29 01:20:06;;;;;;;;;;;;;;;18.45;59.34;102975.78;7388991;19;1242;-32
2024/01/29 01:22:34;;;;;;;;;;;;;;;18.48;59.29;102975.66;7389409;19;1527;-33
2024/01/29 01:25:05;;;;;;;;;;;;;;;18.46;59.21;102976.66;7389311;19;1845;-32
2024/01/29 01:27:34;;;;;;;;;;;;;;;18.44;59.39;102962.47;7375229;19;1215;-32
2024/01/29 01:30:02;;;;;;;;;;;;;;;18.45;59.31;102974.94;7389248;19;1874;-32
2024/01/29 01:32:30;;;;;;;;;;;;;;;18.50;59.23;102967.50;7389575;19;1539;-33
2024/01/29 01:34:58;;;;;;;;;;;;;;;18.54;59.15;102968.22;7389857;19;1524;-32
2024/01/29 01:37:27;;;;;;;;;;;;;;;18.54;59.18;102970.91;7389952;19;1215;-32
2024/01/29 01:39:55;;;;;;;;;;;;;;;18.55;59.25;102973.50;7389350;19;1779;-32
2024/01/29 01:42:26;;;;;;;;;;;;;;;18.55;59.01;102954.75;7389076;19;1566;-32
2024/01/29 01:44:55;;;;;;;;;;;;;;;18.51;59.17;102965.72;7388716;19;1841;-33
2024/01/29 01:47:23;;;;;;;;;;;;;;;18.53;58.98;102955.78;7388751;19;1935;-32
2024/01/29 01:49:52;;;;;;;;;;;;;;;18.52;59.19;102970.13;7388622;19;1945;-33
2024/01/29 01:52:20;;;;;;;;;;;;;;;18.51;59.15;102966.59;7389485;19;1530;-32
2024/01/29 01:54:49;;;;;;;;;;;;;;;18.53;59.11;102950.44;7389676;19;1102;-32
2024/01/29 01:57:17;;;;;;;;;;;;;;;18.56;58.96;102956.50;7388196;19;1503;-33
2024/01/29 01:59:48;;;;;;;;;;;;;;;18.55;58.95;102954.75;7387916;19;1184;-33
2024/01/29 02:02:17;;;;;;;;;;;;;;;18.52;59.08;102976.34;7387787;19;1412;-33
2024/01/29 02:04:45;;;;;;;;;;;;;;;18.48;59.08;102966.72;7387880;19;1850;-32
2024/01/29 02:07:11;;;;;;;;;;;;;;;18.50;59.06;102967.50;7388361;19;1643;-32
2024/01/29 02:09:40;;;;;;;;;;;;;;;18.52;59.00;102975.47;7387915;19;1509;-33
2024/01/29 02:12:10;;;;;;;;;;;;;;;18.52;59.14;102965.63;7388571;19;1156;-32
2024/01/29 02:14:38;;;;;;;;;;;;;;;18.43;59.17;102960.75;7387736;19;1365;-32
2024/01/29 02:17:09;;;;;;;;;;;;;;;18.46;59.22;102965.94;7387927;19;1486;-32
2024/01/29 02:19:38;;;;;;;;;;;;;;;18.51;59.08;102971.94;7387433;19;1876;-32
2024/01/29 02:22:06;;;;;;;;;;;;;;;18.51;59.02;102969.25;7388146;19;1542;-32
2024/01/29 02:24:37;;;;;;;;;;;;;;;18.47;59.19;102973.91;7387575;19;1160;-32
2024/01/29 02:27:06;;;;;;;;;;;;;;;18.37;59.28;102969.97;7390387;19;1966;-32
2024/01/29 02:29:34;;;;;;;;;;;;;;;17.96;60.23;102982.72;7381478;19;1036;-32
2024/01/29 02:32:02;;;;;;;;;;;;;;;17.69;61.10;102969.72;7396108;19;1063;-32
2024/01/29 02:34:31;;;;;;;;;;;;;;;17.46;61.77;102974.31;7395358;19;1925;-33
2024/01/29 02:36:59;;;;;;;;;;;;;;;17.34;61.78;102977.56;7395165;19;1607;-33
2024/01/29 02:39:27;;;;;;;;;;;;;;;17.14;62.17;102967.78;7395339;19;1426;-32
2024/01/29 02:41:58;;;;;;;;;;;;;;;17.25;62.28;102972.66;7394035;19;1285;-33
2024/01/29 02:44:27;;;;;;;;;;;;;;;17.89;60.39;102969.66;7395407;19;1564;-32
2024/01/29 02:46:57;;;;;;;;;;;;;;;18.16;59.80;102979.94;7391901;19;1847;-33
2024/01/29 02:49:25;;;;;;;;;;;;;;;18.05;60.13;102993.00;7394806;19;1195;-33
2024/01/29 02:51:54;;;;;;;;;;;;;;;17.72;60.83;102992.78;7395545;19;991;-32
2024/01/29 02:54:22;;;;;;;;;;;;;;;17.47;61.35;102980.56;7393837;19;1502;-33
2024/01/29 02:56:50;;;;;;;;;;;;;;;17.26;61.83;103001.13;7394288;19;1489;-32
2024/01/29 02:59:21;;;;;;;;;;;;;;;17.16;62.29;103005.16;7393779;19;1193;-32
2024/01/29 03:01:49;;;;;;;;;;;;;;;17.10;62.74;102998.28;7393648;19;1179;-33
2024/01/29 03:04:18;;;;;;;;;;;;;;;17.68;60.99;102989.38;7394015;19;1628;-32
2024/01/29 03:06:46;;;;;;;;;;;;;;;18.00;60.16;102984.31;7391754;19;1857;-32
2024/01/29 03:09:14;;;;;;;;;;;;;;;18.20;59.78;102997.56;7391058;19;1502;-33
2024/01/29 03:11:43;;;;;;;;;;;;;;;17.97;60.36;103011.25;7394892;19;1036;-32
2024/01/29 03:14:11;;;;;;;;;;;;;;;17.55;60.97;103014.94;7392316;19;1636;-32
2024/01/29 03:16:42;;;;;;;;;;;;;;;17.34;61.67;103006.13;7394405;19;1617;-33
2024/01/29 03:19:11;;;;;;;;;;;;;;;17.18;62.08;102992.59;7393945;19;1572;-33
2024/01/29 03:21:39;;;;;;;;;;;;;;;16.97;62.61;103021.13;7393787;19;1199;-32
2024/01/29 03:24:08;;;;;;;;;;;;;;;17.15;62.26;103008.75;7394647;19;1278;-32
2024/01/29 03:26:36;;;;;;;;;;;;;;;17.80;60.45;103031.59;7392631;19;1885;-32
2024/01/29 03:29:05;;;;;;;;;;;;;;;18.02;59.93;103020.75;7379023;19;1226;-32
2024/01/29 03:31:33;;;;;;;;;;;;;;;18.15;59.68;103005.00;7392886;19;1265;-32
2024/01/29 03:34:04;;;;;;;;;;;;;;;18.22;59.43;103006.44;7392257;19;1560;-32
2024/01/29 03:36:32;;;;;;;;;;;;;;;18.25;59.19;103022.34;7391783;19;1566;-32
2024/01/29 03:39:01;;;;;;;;;;;;;;;18.27;59.33;103024.94;7391512;19;1458;-32
2024/01/29 03:41:29;;;;;;;;;;;;;;;18.21;59.34;103019.88;7392511;19;1494;-33
2024/01/29 03:43:57;;;;;;;;;;;;;;;18.17;59.22;103029.88;7392558;19;1481;-32
2024/01/29 03:46:26;;;;;;;;;;;;;;;18.24;59.20;103004.53;7390711;19;1853;-32
2024/01/29 03:48:54;;;;;;;;;;;;;;;18.23;59.11;103013.50;7392333;19;1655;-32
2024/01/29 03:51:25;;;;;;;;;;;;;;;18.21;59.12;103020.75;7391878;19;1223;-33
2024/01/29 03:53:53;;;;;;;;;;;;;;;18.19;59.33;103017.28;7391623;19;1683;-32
2024/01/29 03:56:22;;;;;;;;;;;;;;;18.26;59.18;103020.50;7392436;19;1937;-33
2024/01/29 03:58:50;;;;;;;;;;;;;;;18.24;59.16;103042.03;7392081;19;1148;-32
2024/01/29 04:01:27;;;;;;;;;;;;;;;18.22;59.12;103054.63;7392164;19;1593;-32
2024/01/29 04:03:55;;;;;;;;;;;;;;;17.65;58.66;102914.63;7391840;19;1451;-32
2024/01/29 04:06:26;;;;;;;;;;;;;;;18.62;58.24;103052.66;7390640;19;1846;-33
2024/01/29 04:08:55;;;;;;;;;;;;;;;18.54;58.35;103040.56;7391252;19;1302;-32
2024/01/29 04:11:23;;;;;;;;;;;;;;;18.39;59.02;103052.94;7391991;19;1040;-32
2024/01/29 04:13:51;;;;;;;;;;;;;;;18.27;59.15;103047.22;7391489;19;1660;-32
2024/01/29 04:16:19;;;;;;;;;;;;;;;18.34;59.25;103046.94;7391712;19;1171;-32
2024/01/29 04:18:48;;;;;;;;;;;;;;;18.28;59.29;103046.31;7391050;19;1503;-32
2024/01/29 04:21:16;;;;;;;;;;;;;;;18.33;59.34;103056.78;7393545;19;1153;-32
2024/01/29 04:23:47;;;;;;;;;;;;;;;18.35;59.18;103054.91;7393440;19;1918;-32
2024/01/29 04:26:15;;;;;;;;;;;;;;;18.34;59.15;103066.53;7393035;19;1852;-32
2024/01/29 04:28:44;;;;;;;;;;;;;;;18.35;59.25;103062.94;7377648;19;1590;-32
2024/01/29 04:31:16;;;;;;;;;;;;;;;18.33;59.36;103061.28;7390155;19;1549;-32
2024/01/29 04:33:44;;;;;;;;;;;;;;;18.37;59.01;103065.53;7388192;19;1572;-32
2024/01/29 04:36:14;;;;;;;;;;;;;;;18.42;59.03;103074.19;7387343;19;1382;-35
2024/01/29 04:38:44;;;;;;;;;;;;;;;18.52;58.89;103067.44;7387537;19;1443;-33
2024/01/29 04:41:21;;;;;;;;;;;;;;;18.44;59.13;103067.84;7390222;19;1423;-32
2024/01/29 04:43:49;;;;;;;;;;;;;;;18.47;58.90;103058.78;7390770;19;1577;-33
2024/01/29 04:46:17;;;;;;;;;;;;;;;18.54;58.79;103067.38;7387478;19;1855;-32
2024/01/29 04:48:46;;;;;;;;;;;;;;;18.60;58.80;103076.00;7389941;19;1450;-33
2024/01/29 04:51:14;;;;;;;;;;;;;;;18.60;58.88;103076.00;7390518;19;1320;-32
2024/01/29 04:53:42;;;;;;;;;;;;;;;17.85;58.88;102949.31;7390639;19;1518;-33
2024/01/29 04:56:11;;;;;;;;;;;;;;;18.57;58.90;103084.16;7389593;19;1274;-37
2024/01/29 04:58:42;;;;;;;;;;;;;;;18.54;59.32;103097.69;7389216;19;1197;-32
2024/01/29 05:01:11;;;;;;;;;;;;;;;18.58;59.32;103083.25;7391150;19;1102;-32
2024/01/29 05:03:39;;;;;;;;;;;;;;;18.39;58.44;103087.75;7389164;19;1478;-32
2024/01/29 05:06:08;;;;;;;;;;;;;;;18.45;58.17;103074.94;7385253;19;1857;-32
2024/01/29 05:08:36;;;;;;;;;;;;;;;18.47;57.84;103085.56;7388278;19;1231;-32
2024/01/29 05:11:04;;;;;;;;;;;;;;;18.47;57.85;103091.78;7386537;19;1592;-32
2024/01/29 05:13:33;;;;;;;;;;;;;;;18.50;57.75;103098.78;7386746;19;1622;-32
2024/01/29 05:16:04;;;;;;;;;;;;;;;18.57;57.45;103094.03;7387991;19;1533;-32
2024/01/29 05:18:32;;;;;;;;;;;;;;;18.62;57.52;103095.53;7386261;19;1514;-32
2024/01/29 05:21:00;;;;;;;;;;;;;;;18.67;57.24;103090.81;7386488;19;1169;-32
2024/01/29 05:23:28;;;;;;;;;;;;;;;18.73;57.12;103091.44;7385838;19;1207;-33
2024/01/29 05:25:57;;;;;;;;;;;;;;;18.76;57.04;103091.28;7385086;19;1867;-32
2024/01/29 05:28:25;;;;;;;;;;;;;;;18.77;56.69;103142.13;7376255;19;1590;-34
2024/01/29 05:30:53;;;;;;;;;;;;;;;18.76;56.70;103091.28;7386062;19;1193;-32
2024/01/29 05:33:24;;;;;;;;;;;;;;;18.77;56.74;103101.06;7388687;19;1502;-32
2024/01/29 05:35:53;;;;;;;;;;;;;;;18.78;56.62;103106.38;7389912;19;1313;-32
2024/01/29 05:38:21;;;;;;;;;;;;;;;18.76;56.57;103099.31;7389807;19;1513;-32
2024/01/29 05:40:50;;;;;;;;;;;;;;;18.77;56.72;103103.75;7388886;19;1212;-32
2024/01/29 05:43:18;;;;;;;;;;;;;;;18.82;56.41;103102.63;7389614;19;1099;-32
2024/01/29 05:45:46;;;;;;;;;;;;;;;18.88;56.29;103093.41;7388370;19;1850;-32
2024/01/29 05:48:15;;;;;;;;;;;;;;;18.95;56.13;103102.84;7387821;19;1849;-32
2024/01/29 05:50:46;;;;;;;;;;;;;;;18.96;55.96;103114.44;7388978;19;1202;-33
2024/01/29 05:53:16;;;;;;;;;;;;;;;18.95;56.02;103123.44;7388621;19;1463;-32
2024/01/29 05:55:44;;;;;;;;;;;;;;;18.90;56.20;103117.44;7388399;19;1648;-33
2024/01/29 05:58:14;;;;;;;;;;;;;;;18.72;56.16;103116.50;7385038;19;1347;-32
2024/01/29 06:00:42;;;;;;;;;;;;;;;18.50;56.69;103133.63;7387460;19;1543;-33
2024/01/29 06:03:12;;;;;;;;;;;;;;;18.00;58.09;103129.75;7388931;19;1644;-32
2024/01/29 06:05:40;;;;;;;;;;;;;;;17.61;59.06;103149.34;7387897;19;1565;-33
2024/01/29 06:08:11;;;;;;;;;;;;;;;17.46;59.60;103134.81;7386412;19;1860;-33
2024/01/29 06:52:00;;;;;;;;;;;;;;;16.37;60.28;103176.69;6901869;19;9999893;-73
2024/01/29 06:54:28;;;;;;;;;;;;;;;16.38;60.17;103180.25;7434562;19;1394;-82
2024/01/29 06:56:57;;;;;;;;;;;;;;;16.36;60.33;103174.13;7431537;19;1934;-84
2024/01/29 06:59:26;;;;;;;;;;;;;;;16.37;60.25;103184.72;7427828;19;1601;-84
2024/01/29 07:01:59;;;;;;;;;;;;;;;16.39;60.19;103182.00;7428167;19;1618;-75
2024/01/29 07:04:28;;;;;;;;;;;;;;;16.35;60.29;103178.56;7428990;19;1700;-84
2024/01/29 07:06:56;;;;;;;;;;;;;;;16.32;60.53;103191.19;7429478;19;1795;-75
2024/01/29 07:09:28;;;;;;;;;;;;;;;16.28;60.67;103185.94;7430978;19;1936;-83
2024/01/29 07:11:56;;;;;;;;;;;;;;;16.24;60.83;103189.66;7427965;19;1847;-83
2024/01/29 07:14:24;;;;;;;;;;;;;;;16.19;60.83;103185.41;7431786;19;1849;-84
2024/01/29 07:16:53;;;;;;;;;;;;;;;16.19;60.77;103186.28;7433970;19;1576;-74
2024/01/29 07:19:26;;;;;;;;;;;;;;;16.17;60.90;103172.13;7432243;19;1043;-74
2024/01/29 07:21:57;;;;;;;;;;;;;;;16.17;60.79;103198.81;7426020;19;1924;-74
2024/01/29 07:24:28;;;;;;;;;;;;;;;16.23;60.72;103184.38;7430531;19;1629;-75
2024/01/29 07:26:58;;;;;;;;;;;;;;;16.41;60.39;103186.38;7432776;19;1290;-75
2024/01/29 07:29:27;;;;;;;;;;;;;;;16.92;59.31;103175.47;7433683;19;1557;-74
2024/01/29 07:31:56;;;;;;;;;;;;;;;17.45;57.86;103183.91;7427558;19;1843;-75
2024/01/29 07:34:26;;;;;;;;;;;;;;;17.94;56.80;103183.56;7429742;19;1553;-74
2024/01/29 07:36:54;;;;;;;;;;;;;;;18.35;55.60;103185.28;7430917;19;1617;-74
2024/01/29 07:39:28;;;;;;;;;;;;;;;18.56;55.20;103169.97;7430751;19;1414;-75
2024/01/29 07:41:56;;;;;;;;;;;;;;;18.48;54.99;103178.38;7430475;19;1506;-74
2024/01/29 07:44:24;;;;;;;;;;;;;;;18.48;55.24;103194.47;7433278;19;1180;-74
2024/01/29 07:46:55;;;;;;;;;;;;;;;18.41;55.36;103166.25;7432909;19;1541;-74
2024/01/29 07:49:23;;;;;;;;;;;;;;;18.45;55.29;103178.56;7433050;19;1186;-73
2024/01/29 07:51:53;;;;;;;;;;;;;;;18.37;55.49;103175.38;7418251;19;1846;-84
2024/01/29 07:54:21;;;;;;;;;;;;;;;18.38;55.47;103187.81;7431269;19;1434;-75
2024/01/29 07:56:52;;;;;;;;;;;;;;;18.38;55.34;103177.97;7429139;19;2483;-75
2024/01/29 07:59:21;;;;;;;;;;;;;;;18.38;55.07;103194.06;7429444;19;1565;-75
2024/01/29 08:01:53;;;;;;;;;;;;;;;18.37;54.97;103165.50;7416478;19;1426;-75
2024/01/29 08:04:21;;;;;;;;;;;;;;;18.47;54.81;103192.75;7402490;19;1378;-75
2024/01/29 08:06:51;;;;;;;;;;;;;;;18.43;54.74;103175.06;7400558;19;1458;-75
2024/01/29 08:09:19;;;;;;;;;;;;;;;18.45;54.77;103190.13;7402144;19;1381;-75
2024/01/29 08:11:48;;;;;;;;;;;;;;;18.46;54.98;103193.66;7400058;19;1861;-75
2024/01/29 08:14:19;;;;;;;;;;;;;;;18.47;54.89;103184.69;7401851;19;1273;-75
2024/01/29 08:16:47;;;;;;;;;;;;;;;18.39;55.18;103211.00;7405166;19;1407;-75
2024/01/29 08:19:16;;;;;;;;;;;;;;;18.34;55.27;103191.56;7403118;19;1851;-75
2024/01/29 08:21:45;;;;;;;;;;;;;;;18.44;55.08;103184.84;7401526;19;1231;-75
2024/01/29 08:24:13;;;;;;;;;;;;;;;18.39;55.24;103200.28;7399533;19;1587;-75
2024/01/29 08:26:42;;;;;;;;;;;;;;;18.40;55.09;103188.59;7401272;19;1627;-75
2024/01/29 08:29:10;;;;;;;;;;;;;;;18.40;55.26;103194.84;7399743;19;1383;-76
2024/01/29 08:31:41;;;;;;;;;;;;;;;18.34;55.45;103218.38;7398920;19;1855;-75
2024/01/29 08:34:12;;;;;;;;;;;;;;;18.35;55.42;103204.03;7401872;19;1624;-75
2024/01/29 08:36:40;;;;;;;;;;;;;;;18.35;55.49;103202.22;7403597;19;1537;-75
2024/01/29 08:39:09;;;;;;;;;;;;;;;18.37;55.31;103194.13;7403874;19;1476;-75
2024/01/29 08:41:37;;;;;;;;;;;;;;;18.40;55.32;103194.84;7403891;19;1013;-75
2024/01/29 08:44:06;;;;;;;;;;;;;;;18.42;55.54;103216.19;7402961;19;1505;-75
2024/01/29 08:46:35;;;;;;;;;;;;;;;18.43;55.50;103207.22;7398654;19;1933;-75
2024/01/29 08:49:06;;;;;;;;;;;;;;;18.46;55.30;103215.09;7401598;19;1100;-75
2024/01/29 08:51:34;;;;;;;;;;;;;;;18.45;55.59;103226.78;7393820;19;1834;-75
2024/01/29 08:54:04;;;;;;;;;;;;;;;18.49;55.38;103225.69;7401363;19;1101;-75
2024/01/29 08:56:33;;;;;;;;;;;;;;;18.38;55.52;103230.66;7403238;19;1078;-76
2024/01/29 08:59:01;;;;;;;;;;;;;;;18.45;55.41;103227.63;7402889;19;1476;-75
2024/01/29 09:01:29;;;;;;;;;;;;;;;18.45;55.47;103232.13;7402745;19;1564;-75
2024/01/29 09:03:59;;;;;;;;;;;;;;;18.44;54.71;103236.63;7403397;19;1120;-76
2024/01/29 09:06:30;;;;;;;;;;;;;;;18.46;55.12;103231.19;7401403;19;1262;-76
2024/01/29 09:09:07;;;;;;;;;;;;;;;18.57;54.70;103233.38;7400937;19;1315;-75
2024/01/29 09:11:36;;;;;;;;;;;;;;;18.60;54.90;103226.06;7400971;19;1933;-75
2024/01/29 09:14:05;;;;;;;;;;;;;;;18.61;54.94;103227.78;7397222;19;1546;-75
2024/01/29 09:16:35;;;;;;;;;;;;;;;18.59;54.92;103229.66;7396178;19;1509;-75
2024/01/29 09:19:03;;;;;;;;;;;;;;;18.58;54.87;103233.31;7402371;19;1485;-75
2024/01/29 09:21:36;;;;;;;;;;;;;;;18.53;55.02;103224.59;7398188;19;1858;-75
2024/01/29 09:24:02;;;;;;;;;;;;;;;18.53;55.23;103229.09;7401074;19;1756;-75
2024/01/29 09:26:31;;;;;;;;;;;;;;;18.52;55.12;103228.22;7398574;19;1871;-75
2024/01/29 09:28:59;;;;;;;;;;;;;;;18.54;54.90;103236.19;7398989;19;999;-75
2024/01/29 09:31:29;;;;;;;;;;;;;;;18.54;54.99;103220.97;7397128;19;1841;-74
2024/01/29 09:33:57;;;;;;;;;;;;;;;18.43;55.31;103221.47;7400899;19;1791;-75
2024/01/29 09:36:26;;;;;;;;;;;;;;;18.51;55.15;103223.81;7400878;19;1363;-74
2024/01/29 09:38:57;;;;;;;;;;;;;;;18.55;55.16;103221.84;7400075;19;1219;-76
2024/01/29 09:41:25;;;;;;;;;;;;;;;18.53;55.30;103224.59;7401771;19;1800;-76
2024/01/29 09:44:00;;;;;;;;;;;;;;;18.53;55.16;103213.88;7398741;19;1768;-75
2024/01/29 09:46:29;;;;;;;;;;;;;;;18.53;55.09;103210.34;7399763;19;1303;-75
2024/01/29 09:48:57;;;;;;;;;;;;;;;18.58;55.08;103227.94;7398609;19;1432;-75
2024/01/29 09:51:28;;;;;;;;;;;;;;;18.58;55.11;103222.59;7388399;19;1854;-75
2024/01/29 09:54:01;;;;;;;;;;;;;;;18.58;54.74;103211.88;7398891;19;1814;-84
2024/01/29 09:56:33;;;;;;;;;;;;;;;18.65;54.33;103207.06;7401973;19;1275;-75
2024/01/29 09:59:01;;;;;;;;;;;;;;;18.69;54.29;103206.84;7402101;19;1926;-84
2024/01/29 10:01:32;;;;;;;;;;;;;;;18.76;54.27;103198.50;7406805;19;1203;-75
2024/01/29 10:04:00;;;;;;;;;;;;;;;18.76;54.49;103214.59;7401081;19;1085;-75
2024/01/29 10:06:28;;;;;;;;;;;;;;;18.75;54.41;103192.28;7402473;19;931;-84
2024/01/29 10:08:57;;;;;;;;;;;;;;;18.81;54.07;103200.03;7404445;19;927;-75
2024/01/29 10:11:29;;;;;;;;;;;;;;;18.91;53.83;103203.16;7403443;19;1866;-74
2024/01/29 10:14:01;;;;;;;;;;;;;;;18.87;54.07;103210.47;7401257;19;1392;-73
2024/01/29 10:16:37;;;;;;;;;;;;;;;18.93;54.17;103201.25;7400148;19;1482;-75
2024/01/29 10:19:06;;;;;;;;;;;;;;;18.98;54.01;103199.22;7403029;19;1277;-84
2024/01/29 10:21:39;;;;;;;;;;;;;;;19.01;54.19;103209.78;7404487;19;1859;-75
2024/01/29 10:24:14;;;;;;;;;;;;;;;18.59;55.19;103184.13;7404293;19;1947;-84
2024/01/29 10:26:45;;;;;;;;;;;;;;;18.27;56.01;103180.28;7400109;19;1850;-84
2024/01/29 10:29:16;;;;;;;;;;;;;;;18.00;56.66;103177.06;7403762;19;1762;-78
2024/01/29 10:31:45;;;;;;;;;;;;;;;17.95;56.65;103196.03;7401086;19;1834;-75
2024/01/29 10:34:14;;;;;;;;;;;;;;;18.37;55.67;103186.94;7398793;19;1996;-82
2024/01/29 10:36:42;;;;;;;;;;;;;;;18.73;54.98;103190.63;7398182;19;1403;-84
2024/01/29 10:39:14;;;;;;;;;;;;;;;19.04;53.79;103182.84;7403901;19;1579;-84
2024/01/29 10:41:47;;;;;;;;;;;;;;;19.19;53.77;103183.00;7399711;19;1190;-75
2024/01/29 10:44:19;;;;;;;;;;;;;;;19.33;53.46;103177.78;7399457;19;1515;-75
2024/01/29 10:46:49;;;;;;;;;;;;;;;19.43;53.32;103179.03;7401693;19;1069;-75
2024/01/29 10:49:18;;;;;;;;;;;;;;;19.43;53.25;103168.31;7399296;19;1906;-76
2024/01/29 10:51:51;;;;;;;;;;;;;;;19.50;53.13;103159.94;7393403;19;1850;-77
2024/01/29 10:54:21;;;;;;;;;;;;;;;19.52;53.14;103166.09;7397967;19;1410;-76
2024/01/29 10:56:52;;;;;;;;;;;;;;;19.54;53.05;103185.69;7401835;19;1739;-84
2024/01/29 10:59:21;;;;;;;;;;;;;;;19.43;53.53;103173.69;7404708;19;1720;-83
2024/01/29 11:01:51;;;;;;;;;;;;;;;19.48;53.31;103166.28;7400165;19;1394;-80
2024/01/29 11:04:24;;;;;;;;;;;;;;;19.55;53.31;103166.81;7404188;19;1510;-83
2024/01/29 11:06:55;;;;;;;;;;;;;;;19.52;53.44;103166.09;7402166;19;1560;-83
2024/01/29 11:09:27;;;;;;;;;;;;;;;19.43;53.67;103168.31;7402430;19;1369;-83
2024/01/29 11:12:05;;;;;;;;;;;;;;;19.48;53.60;103171.63;7396186;19;1839;-83
2024/01/29 11:14:34;;;;;;;;;;;;;;;19.46;53.68;103164.63;7396168;19;1430;-75
2024/01/29 11:17:05;;;;;;;;;;;;;;;19.46;53.82;103157.44;7403142;19;1058;-84
2024/01/29 11:19:34;;;;;;;;;;;;;;;19.47;53.65;103151.09;7401612;19;1867;-83
2024/01/29 11:22:03;;;;;;;;;;;;;;;19.47;53.64;103175.25;7401803;19;1434;-82
2024/01/29 11:24:34;;;;;;;;;;;;;;;19.48;53.83;103160.03;7401543;19;1545;-83
2024/01/29 11:27:12;;;;;;;;;;;;;;;19.37;54.08;103154.34;7402845;19;1104;-83
2024/01/29 11:29:41;;;;;;;;;;;;;;;19.33;54.21;103164.38;7403470;19;1677;-84
2024/01/29 11:32:10;;;;;;;;;;;;;;;19.35;54.16;103172.34;7402310;19;1846;-82
2024/01/29 11:34:40;;;;;;;;;;;;;;;19.26;54.34;103166.53;7400330;19;1223;-83
2024/01/29 11:37:09;;;;;;;;;;;;;;;19.22;54.47;103166.75;7402613;19;1882;-83
2024/01/29 11:39:44;;;;;;;;;;;;;;;19.17;54.58;103166.13;7409887;19;1615;-83
2024/01/29 11:42:16;;;;;;;;;;;;;;;19.15;54.56;103165.31;7407083;19;1623;-83
2024/01/29 11:44:44;;;;;;;;;;;;;;;19.11;54.65;103161.06;7407067;19;1760;-83
2024/01/29 11:47:14;;;;;;;;;;;;;;;19.23;54.49;103171.16;7409473;19;1743;-83
2024/01/29 11:49:43;;;;;;;;;;;;;;;19.13;54.68;103175.28;7409031;19;1051;-83
2024/01/29 11:52:12;;;;;;;;;;;;;;;19.11;54.67;103161.06;7397884;19;1875;-83
2024/01/29 11:54:40;;;;;;;;;;;;;;;19.14;54.73;103168.94;7407546;19;1925;-84
2024/01/29 11:57:09;;;;;;;;;;;;;;;19.16;54.44;103153.63;7405915;19;1743;-75
2024/01/29 11:59:48;;;;;;;;;;;;;;;19.13;54.61;103145.75;7407481;19;942;-84
2024/01/29 12:02:16;;;;;;;;;;;;;;;19.07;54.65;103144.25;7407221;19;1426;-83
2024/01/29 12:04:45;;;;;;;;;;;;;;;19.04;54.62;103141.75;7404618;19;1835;-83
2024/01/29 12:07:19;;;;;;;;;;;;;;;19.06;54.73;103135.34;7407415;19;1335;-83
2024/01/29 12:09:47;;;;;;;;;;;;;;;18.98;54.83;103128.63;7405160;19;1219;-84
2024/01/29 12:12:17;;;;;;;;;;;;;;;19.05;54.76;103151.50;7405578;19;2410;-83
2024/01/29 12:14:48;;;;;;;;;;;;;;;19.06;54.75;103131.81;7406735;19;1426;-83
2024/01/29 12:17:16;;;;;;;;;;;;;;;19.06;54.76;103138.03;7407535;19;976;-83
2024/01/29 12:19:47;;;;;;;;;;;;;;;19.07;54.73;103153.16;7408242;19;1062;-83
2024/01/29 12:22:16;;;;;;;;;;;;;;;19.03;54.83;103137.31;7406215;19;1924;-83
2024/01/29 12:24:48;;;;;;;;;;;;;;;19.03;54.93;103138.19;7406393;19;1513;-83
2024/01/29 12:27:19;;;;;;;;;;;;;;;18.95;54.94;103143.06;7406987;19;1753;-82
2024/01/29 12:29:51;;;;;;;;;;;;;;;19.05;54.90;103152.38;7406214;19;1422;-83
2024/01/29 12:32:20;;;;;;;;;;;;;;;19.02;54.57;103133.78;7405527;19;1849;-84
2024/01/29 12:34:50;;;;;;;;;;;;;;;18.98;55.01;103147.41;7406908;19;1751;-83
2024/01/29 12:37:22;;;;;;;;;;;;;;;18.94;54.82;103130.63;7412421;19;1533;-86
2024/01/29 12:39:54;;;;;;;;;;;;;;;18.98;54.96;103152.75;7409531;19;1465;-85
2024/01/29 12:42:23;;;;;;;;;;;;;;;18.94;55.28;103149.38;7412911;19;1224;-85
2024/01/29 12:44:55;;;;;;;;;;;;;;;19.02;55.05;103136.47;7412685;19;1630;-86
2024/01/29 12:47:25;;;;;;;;;;;;;;;18.87;55.41;103142.59;7410221;19;1550;-85
2024/01/29 12:49:53;;;;;;;;;;;;;;;18.91;55.44;103149.53;7409577;19;1089;-85
2024/01/29 12:52:28;;;;;;;;;;;;;;;18.95;55.17;103159.16;7398130;19;1869;-85
2024/01/29 12:54:57;;;;;;;;;;;;;;;18.98;55.11;103155.44;7409715;19;1277;-85
2024/01/29 12:57:26;;;;;;;;;;;;;;;18.94;55.31;103151.19;7407808;19;1439;-84
2024/01/29 12:59:57;;;;;;;;;;;;;;;18.88;55.47;103150.56;7405329;19;1395;-82
2024/01/29 13:02:25;;;;;;;;;;;;;;;18.82;55.62;103149.97;7406596;19;1492;-83
2024/01/29 13:04:54;;;;;;;;;;;;;;;18.88;55.29;103153.25;7406486;19;1818;-82
2024/01/29 13:07:22;;;;;;;;;;;;;;;18.88;55.14;103149.69;7404817;19;1454;-83
2024/01/29 13:09:50;;;;;;;;;;;;;;;18.89;55.35;103151.41;7407479;19;1413;-83
2024/01/29 13:12:19;;;;;;;;;;;;;;;18.94;55.37;103154.75;7404776;19;1837;-83
2024/01/29 13:14:47;;;;;;;;;;;;;;;18.95;55.24;103151.09;7405163;19;1727;-81
2024/01/29 13:17:18;;;;;;;;;;;;;;;18.89;55.30;103135.34;7402900;19;1846;-74
2024/01/29 13:19:48;;;;;;;;;;;;;;;18.90;55.28;103129.03;7398826;19;1034;-74
2024/01/29 13:22:16;;;;;;;;;;;;;;;18.93;55.22;103147.63;7401240;19;1840;-74
2024/01/29 13:24:44;;;;;;;;;;;;;;;18.99;55.08;103141.97;7402231;19;1838;-74
2024/01/29 13:27:22;;;;;;;;;;;;;;;18.95;55.21;103144.88;7399295;19;1941;-74
2024/01/29 13:29:51;;;;;;;;;;;;;;;18.93;55.17;103134.22;7399256;19;1603;-74
2024/01/29 13:32:22;;;;;;;;;;;;;;;18.91;55.09;103112.00;7398272;19;1981;-74
2024/01/29 13:34:50;;;;;;;;;;;;;;;18.92;55.25;103151.28;7399538;19;1588;-74
2024/01/29 13:37:21;;;;;;;;;;;;;;;18.90;55.33;103139.75;7398837;19;1830;-74
2024/01/29 13:39:49;;;;;;;;;;;;;;;18.91;55.20;103137.94;7400649;19;1515;-75